Galice, Oregon
Current Conditions -  °F | °C
As of 1:56 PM on Thursday 27 Nov 2014 (Local Time) from KSXT Reporting Station
Broken Clouds Broken Clouds  
Wind Chill: 51°   Ceiling: 10000
Heat Index: 51°   Visibility: 10mi
Dew Point: 33°   Wind: 14mph
Humidity: 50%   Direction: 210°SSW
Pressure: 30"   Gusts: 22mph
Location:  42.5504°N, 123.448°W
Report Text: KSXT 272156Z AUTO 21012G19KT 10SM BKN100 11/01 A3000 RMK AO2 SLP140 T01060006
Loading
Personal Weather Stations






























Interactive Weather Map New forecast layout! Learn more

10-Day Weather Forecast

Advertisements
Track Severe Weather on mobile